Time,TemperatureF,DewpointF,PressureIn,WindDirection,WindDirectionDegrees,WindSpeedMPH,WindSpeedGustMPH,Humidity,HourlyPrecipIn,Conditions,Clouds,dailyrainin,SoftwareType,DateUTC
2013-05-20 00:11:00,65.3,63.8,30.11,South,180,2.2,-999.0,95,-99.99,,,0.00,Acu-Link.com,2013-05-20 04:11:00,
2013-05-20 00:26:00,65.3,63.8,30.10,ESE,112,2.7,-999.0,95,-99.99,,,0.00,Acu-Link.com,2013-05-20 04:26:00,
2013-05-20 00:42:00,65.3,63.8,30.10,ESE,112,2.2,-999.0,95,-99.99,,,0.00,Acu-Link.com,2013-05-20 04:42:00,
2013-05-20 00:57:00,65.3,63.8,30.09,SE,135,2.2,-999.0,95,-99.99,,,0.00,Acu-Link.com,2013-05-20 04:57:00,
2013-05-20 01:12:00,65.3,63.8,30.09,SSW,202,1.7,-999.0,95,-99.99,,,0.00,Acu-Link.com,2013-05-20 05:12:00,
2013-05-20 01:27:00,65.3,64.1,30.09,WSW,247,2.2,-999.0,96,-99.99,,,0.00,Acu-Link.com,2013-05-20 05:27:00,
2013-05-20 01:42:00,65.3,64.1,30.08,SSE,157,3.7,-999.0,96,-99.99,,,0.00,Acu-Link.com,2013-05-20 05:42:00,
2013-05-20 01:58:00,65.3,64.1,30.07,ESE,112,3.2,-999.0,96,-99.99,,,0.00,Acu-Link.com,2013-05-20 05:58:00,
2013-05-20 02:13:00,65.5,64.3,30.07,SSW,202,0.0,-999.0,96,-99.99,,,0.00,Acu-Link.com,2013-05-20 06:13:00,
2013-05-20 02:28:00,65.5,64.3,30.07,SE,135,1.7,-999.0,96,-99.99,,,0.00,Acu-Link.com,2013-05-20 06:28:00,
2013-05-20 02:43:00,65.8,64.9,30.07,WSW,247,0.0,-999.0,97,-99.99,,,0.00,Acu-Link.com,2013-05-20 06:43:00,
2013-05-20 02:59:00,65.8,64.9,30.06,SW,225,1.1,-999.0,97,-99.99,,,0.00,Acu-Link.com,2013-05-20 06:59:00,
2013-05-20 03:14:00,65.8,64.9,30.06,SSE,157,4.7,-999.0,97,-99.99,,,0.00,Acu-Link.com,2013-05-20 07:14:00,
2013-05-20 03:29:00,66.0,65.1,30.05,South,180,0.0,-999.0,97,-99.99,,,0.00,Acu-Link.com,2013-05-20 07:29:00,
2013-05-20 03:44:00,66.0,65.1,30.05,South,180,0.0,-999.0,97,-99.99,,,0.00,Acu-Link.com,2013-05-20 07:44:00,
2013-05-20 03:59:00,66.0,65.1,30.05,SSW,202,4.7,-999.0,97,-99.99,,,0.00,Acu-Link.com,2013-05-20 07:59:00,
2013-05-20 04:16:00,66.0,65.1,30.05,South,180,1.1,-999.0,97,-99.99,,,0.00,Acu-Link.com,2013-05-20 08:16:00,
2013-05-20 04:31:00,66.0,65.1,30.05,SSE,157,0.0,-999.0,97,-99.99,,,0.00,Acu-Link.com,2013-05-20 08:31:00,
2013-05-20 04:46:00,66.2,65.3,30.05,South,180,3.2,-999.0,97,-99.99,,,0.00,Acu-Link.com,2013-05-20 08:46:00,
2013-05-20 05:01:00,66.2,65.3,30.05,South,180,2.7,-999.0,97,-99.99,,,0.00,Acu-Link.com,2013-05-20 09:01:00,
2013-05-20 05:16:00,66.0,65.1,30.05,West,270,2.2,-999.0,97,-99.99,,,0.00,Acu-Link.com,2013-05-20 09:16:00,
2013-05-20 05:32:00,65.8,64.9,30.06,West,270,2.7,-999.0,97,-99.99,,,0.00,Acu-Link.com,2013-05-20 09:32:00,
2013-05-20 05:47:00,65.7,64.8,30.06,SSE,157,3.2,-999.0,97,-99.99,,,0.00,Acu-Link.com,2013-05-20 09:47:00,
2013-05-20 06:02:00,65.7,64.8,30.07,ESE,112,2.7,-999.0,97,-99.99,,,0.00,Acu-Link.com,2013-05-20 10:02:00,
2013-05-20 06:17:00,65.7,64.8,30.07,SE,135,2.7,-999.0,97,-99.99,,,0.00,Acu-Link.com,2013-05-20 10:17:00,
2013-05-20 06:32:00,65.8,64.9,30.07,SSE,157,2.2,-999.0,97,-99.99,,,0.00,Acu-Link.com,2013-05-20 10:32:00,
2013-05-20 06:48:00,66.4,65.5,30.07,SW,225,2.7,-999.0,97,-99.99,,,0.00,Acu-Link.com,2013-05-20 10:48:00,
2013-05-20 07:03:00,67.5,65.7,30.07,East,90,3.2,-999.0,94,-99.99,,,0.00,Acu-Link.com,2013-05-20 11:03:00,
2013-05-20 07:18:00,69.1,66.4,30.07,SSE,157,4.7,-999.0,91,-99.99,,,0.00,Acu-Link.com,2013-05-20 11:18:00,
2013-05-20 07:33:00,70.5,66.8,30.07,NE,45,3.7,-999.0,88,-99.99,,,0.00,Acu-Link.com,2013-05-20 11:33:00,
2013-05-20 07:48:00,72.0,67.2,30.07,ESE,112,3.2,-999.0,85,-99.99,,,0.00,Acu-Link.com,2013-05-20 11:48:00,
2013-05-20 08:04:00,72.7,67.2,30.07,WSW,247,6.3,-999.0,83,-99.99,,,0.00,Acu-Link.com,2013-05-20 12:04:00,
2013-05-20 08:19:00,72.1,66.6,30.07,West,270,4.2,-999.0,83,-99.99,,,0.00,Acu-Link.com,2013-05-20 12:19:00,
2013-05-20 08:34:00,72.3,66.8,30.07,South,180,2.7,-999.0,83,-99.99,,,0.00,Acu-Link.com,2013-05-20 12:34:00,
2013-05-20 08:49:00,75.2,68.2,30.08,SE,135,2.7,-999.0,79,-99.99,,,0.00,Acu-Link.com,2013-05-20 12:49:00,
2013-05-20 09:04:00,73.9,67.7,30.07,ESE,112,2.2,-999.0,81,-99.99,,,0.00,Acu-Link.com,2013-05-20 13:04:00,
2013-05-20 09:20:00,73.9,67.7,30.08,South,180,3.2,-999.0,81,-99.99,,,0.00,Acu-Link.com,2013-05-20 13:20:00,
2013-05-20 09:35:00,74.1,67.9,30.08,West,270,4.7,-999.0,81,-99.99,,,0.00,Acu-Link.com,2013-05-20 13:35:00,
2013-05-20 09:50:00,74.3,67.7,30.07,NE,45,6.3,-999.0,80,-99.99,,,0.00,Acu-Link.com,2013-05-20 13:50:00,
2013-05-20 10:05:00,77.7,69.1,30.07,NNW,337,5.3,-999.0,75,-99.99,,,0.00,Acu-Link.com,2013-05-20 14:05:00,
2013-05-20 10:21:00,76.6,68.1,30.07,West,270,3.2,-999.0,75,-99.99,,,0.00,Acu-Link.com,2013-05-20 14:21:00,
2013-05-20 10:36:00,78.3,68.9,30.07,WSW,247,5.3,-999.0,73,-99.99,,,0.00,Acu-Link.com,2013-05-20 14:36:00,
2013-05-20 10:51:00,77.5,68.1,30.06,SSE,157,3.7,-999.0,73,-99.99,,,0.00,Acu-Link.com,2013-05-20 14:51:00,
2013-05-20 11:06:00,79.0,68.8,30.05,ENE,67,1.7,-999.0,71,-99.99,,,0.00,Acu-Link.com,2013-05-20 15:06:00,
2013-05-20 11:21:00,81.0,69.0,30.05,SSW,202,2.7,-999.0,67,-99.99,,,0.00,Acu-Link.com,2013-05-20 15:21:00,
2013-05-20 11:37:00,77.9,68.1,30.05,West,270,4.2,-999.0,72,-99.99,,,0.00,Acu-Link.com,2013-05-20 15:37:00,
2013-05-20 11:52:00,78.1,67.9,30.04,SSE,157,8.3,-999.0,71,-99.99,,,0.00,Acu-Link.com,2013-05-20 15:52:00,
2013-05-20 12:07:00,79.3,67.4,30.04,SW,225,4.2,-999.0,67,-99.99,,,0.00,Acu-Link.com,2013-05-20 16:07:00,
2013-05-20 12:22:00,79.5,68.0,30.03,NNW,337,1.1,-999.0,68,-99.99,,,0.00,Acu-Link.com,2013-05-20 16:22:00,
2013-05-20 12:37:00,81.3,67.9,30.02,SW,225,3.2,-999.0,64,-99.99,,,0.00,Acu-Link.com,2013-05-20 16:37:00,
2013-05-20 12:53:00,80.1,67.3,30.02,West,270,2.7,-999.0,65,-99.99,,,0.00,Acu-Link.com,2013-05-20 16:53:00,
2013-05-20 13:08:00,80.2,67.3,30.02,WNW,292,4.2,-999.0,65,-99.99,,,0.00,Acu-Link.com,2013-05-20 17:08:00,
2013-05-20 13:23:00,82.0,67.2,30.01,ESE,112,3.2,-999.0,61,-99.99,,,0.00,Acu-Link.com,2013-05-20 17:23:00,
2013-05-20 13:38:00,82.0,66.7,30.00,SW,225,8.9,-999.0,60,-99.99,,,0.00,Acu-Link.com,2013-05-20 17:38:00,
2013-05-20 13:53:00,82.6,67.8,30.00,SSW,202,4.7,-999.0,61,-99.99,,,0.00,Acu-Link.com,2013-05-20 17:53:00,
2013-05-20 14:09:00,82.4,67.1,29.99,SSW,202,6.8,-999.0,60,-99.99,,,0.00,Acu-Link.com,2013-05-20 18:09:00,
2013-05-20 14:24:00,83.1,66.8,29.99,West,270,3.2,-999.0,58,-99.99,,,0.00,Acu-Link.com,2013-05-20 18:24:00,
2013-05-20 14:39:00,83.1,66.3,29.99,SSW,202,7.3,-999.0,57,-99.99,,,0.00,Acu-Link.com,2013-05-20 18:39:00,
2013-05-20 14:54:00,82.9,66.6,29.99,West,270,7.3,-999.0,58,-99.99,,,0.00,Acu-Link.com,2013-05-20 18:54:00,
2013-05-20 15:10:00,82.2,66.9,29.99,SSE,157,1.7,-999.0,60,-99.99,,,0.00,Acu-Link.com,2013-05-20 19:10:00,
2013-05-20 15:25:00,83.3,67.4,29.98,SW,225,2.7,-999.0,59,-99.99,,,0.00,Acu-Link.com,2013-05-20 19:25:00,
2013-05-20 15:40:00,82.9,67.1,29.98,East,90,2.7,-999.0,59,-99.99,,,0.00,Acu-Link.com,2013-05-20 19:40:00,
2013-05-20 15:55:00,84.6,66.1,29.97,ESE,112,4.2,-999.0,54,-99.99,,,0.00,Acu-Link.com,2013-05-20 19:55:00,
2013-05-20 16:11:00,84.6,66.1,29.96,SE,135,4.2,-999.0,54,-99.99,,,0.00,Acu-Link.com,2013-05-20 20:11:00,
2013-05-20 16:26:00,81.5,65.8,29.97,SW,225,7.3,-999.0,59,-99.99,,,0.00,Acu-Link.com,2013-05-20 20:26:00,
2013-05-20 16:41:00,82.9,65.6,29.96,NW,315,1.7,-999.0,56,-99.99,,,0.00,Acu-Link.com,2013-05-20 20:41:00,
2013-05-20 16:56:00,84.0,66.6,29.95,NE,45,2.2,-999.0,56,-99.99,,,0.00,Acu-Link.com,2013-05-20 20:56:00,
2013-05-20 17:12:00,84.7,66.2,29.95,NNW,337,7.3,-999.0,54,-99.99,,,0.00,Acu-Link.com,2013-05-20 21:12:00,
2013-05-20 17:27:00,84.0,66.1,29.95,WNW,292,4.2,-999.0,55,-99.99,,,0.00,Acu-Link.com,2013-05-20 21:27:00,
2013-05-20 17:42:00,86.4,66.7,29.94,West,270,2.7,-999.0,52,-99.99,,,0.00,Acu-Link.com,2013-05-20 21:42:00,
2013-05-20 17:57:00,83.8,65.4,29.94,WNW,292,3.7,-999.0,54,-99.99,,,0.00,Acu-Link.com,2013-05-20 21:57:00,
2013-05-20 18:12:00,83.3,65.4,29.94,WNW,292,6.3,-999.0,55,-99.99,,,0.00,Acu-Link.com,2013-05-20 22:12:00,
2013-05-20 18:28:00,82.6,66.3,29.93,North,0,2.7,-999.0,58,-99.99,,,0.00,Acu-Link.com,2013-05-20 22:28:00,
2013-05-20 18:43:00,81.3,66.5,29.93,ESE,112,2.7,-999.0,61,-99.99,,,0.00,Acu-Link.com,2013-05-20 22:43:00,
2013-05-20 18:58:00,79.7,66.9,29.94,SW,225,3.2,-999.0,65,-99.99,,,0.00,Acu-Link.com,2013-05-20 22:58:00,
2013-05-20 19:14:00,78.3,66.8,29.94,SSW,202,4.7,-999.0,68,-99.99,,,0.00,Acu-Link.com,2013-05-20 23:14:00,
2013-05-20 19:29:00,77.5,65.7,29.95,SSE,157,2.2,-999.0,67,-99.99,,,0.00,Acu-Link.com,2013-05-20 23:29:00,
2013-05-20 19:44:00,76.6,66.1,29.95,South,180,4.7,-999.0,70,-99.99,,,0.00,Acu-Link.com,2013-05-20 23:44:00,
2013-05-20 19:59:00,75.9,65.8,29.96,SSW,202,3.7,-999.0,71,-99.99,,,0.00,Acu-Link.com,2013-05-20 23:59:00,
2013-05-20 20:14:00,74.7,65.8,29.95,West,270,0.0,-999.0,74,-99.99,,,0.00,Acu-Link.com,2013-05-21 00:14:00,
2013-05-20 20:30:00,73.9,65.8,29.95,ESE,112,1.7,-999.0,76,-99.99,,,0.00,Acu-Link.com,2013-05-21 00:30:00,
2013-05-20 20:45:00,73.2,65.5,29.96,SSW,202,1.1,-999.0,77,-99.99,,,0.00,Acu-Link.com,2013-05-21 00:45:00,
2013-05-20 21:00:00,72.9,64.9,29.96,SSE,157,1.1,-999.0,76,-99.99,,,0.00,Acu-Link.com,2013-05-21 01:00:00,
2013-05-20 21:15:00,72.3,64.3,29.96,SW,225,1.1,-999.0,76,-99.99,,,0.00,Acu-Link.com,2013-05-21 01:15:00,
2013-05-20 21:30:00,72.0,64.0,29.96,ESE,112,1.7,-999.0,76,-99.99,,,0.00,Acu-Link.com,2013-05-21 01:30:00,
2013-05-20 21:46:00,71.6,64.0,29.96,ESE,112,0.0,-999.0,77,-99.99,,,0.00,Acu-Link.com,2013-05-21 01:46:00,
2013-05-20 22:01:00,71.2,64.0,29.96,East,90,1.1,-999.0,78,-99.99,,,0.00,Acu-Link.com,2013-05-21 02:01:00,
2013-05-20 22:16:00,70.5,64.0,29.96,NE,45,1.1,-999.0,80,-99.99,,,0.00,Acu-Link.com,2013-05-21 02:16:00,
2013-05-20 22:31:00,69.8,63.7,29.96,SE,135,0.0,-999.0,81,-99.99,,,0.00,Acu-Link.com,2013-05-21 02:31:00,
2013-05-20 22:46:00,69.3,64.3,29.96,SSE,157,0.0,-999.0,84,-99.99,,,0.00,Acu-Link.com,2013-05-21 02:46:00,
2013-05-20 23:02:00,68.7,64.3,29.97,ESE,112,0.0,-999.0,86,-99.99,,,0.00,Acu-Link.com,2013-05-21 03:02:00,
2013-05-20 23:17:00,68.7,64.7,29.96,SE,135,1.1,-999.0,87,-99.99,,,0.00,Acu-Link.com,2013-05-21 03:17:00,
2013-05-20 23:32:00,68.2,64.5,29.97,SSE,157,0.0,-999.0,88,-99.99,,,0.00,Acu-Link.com,2013-05-21 03:32:00,
2013-05-20 23:47:00,67.6,64.2,29.97,SW,225,0.0,-999.0,89,-99.99,,,0.00,Acu-Link.com,2013-05-21 03:47:00,